sensor_id;sensor_type;location;lat;lon;timestamp;pressure;altitude;pressure_sealevel;temperature;humidity
9110;BME280;4590;51.462;6.692;2023-01-29T00:01:50;102841.50;;;1.01;59.72
9110;BME280;4590;51.462;6.692;2023-01-29T00:04:16;102835.63;;;0.98;60.33
9110;BME280;4590;51.462;6.692;2023-01-29T00:06:41;102829.34;;;0.97;60.45
9110;BME280;4590;51.462;6.692;2023-01-29T00:09:07;102824.97;;;0.96;60.42
9110;BME280;4590;51.462;6.692;2023-01-29T00:11:32;102839.38;;;0.97;60.45
9110;BME280;4590;51.462;6.692;2023-01-29T00:13:57;102829.34;;;0.97;60.09
9110;BME280;4590;51.462;6.692;2023-01-29T00:16:23;102834.78;;;0.97;60.34
9110;BME280;4590;51.462;6.692;2023-01-29T00:18:48;102832.91;;;0.98;60.54
9110;BME280;4590;51.462;6.692;2023-01-29T00:21:16;102822.06;;;0.98;59.96
9110;BME280;4590;51.462;6.692;2023-01-29T00:23:42;102817.28;;;1.00;60.02
9110;BME280;4590;51.462;6.692;2023-01-29T00:26:08;102820.19;;;0.98;60.11
9110;BME280;4590;51.462;6.692;2023-01-29T00:28:34;102817.50;;;0.98;60.38
9110;BME280;4590;51.462;6.692;2023-01-29T00:31:15;102809.13;;;0.93;60.01
9110;BME280;4590;51.462;6.692;2023-01-29T00:33:41;102814.97;;;0.97;60.16
9110;BME280;4590;51.462;6.692;2023-01-29T00:36:08;102810.56;;;0.96;60.45
9110;BME280;4590;51.462;6.692;2023-01-29T00:38:34;102802.66;;;0.94;60.27
9110;BME280;4590;51.462;6.692;2023-01-29T00:41:11;102808.47;;;0.91;60.46
9110;BME280;4590;51.462;6.692;2023-01-29T00:43:56;102808.09;;;0.94;60.68
9110;BME280;4590;51.462;6.692;2023-01-29T00:46:40;102814.31;;;0.95;60.05
9110;BME280;4590;51.462;6.692;2023-01-29T00:49:06;102812.66;;;0.94;60.60
9110;BME280;4590;51.462;6.692;2023-01-29T00:51:32;102812.84;;;0.92;60.20
9110;BME280;4590;51.462;6.692;2023-01-29T00:53:57;102818.66;;;0.89;60.40
9110;BME280;4590;51.462;6.692;2023-01-29T00:56:28;102815.28;;;0.87;60.45
9110;BME280;4590;51.462;6.692;2023-01-29T00:58:53;102812.59;;;0.87;60.20
9110;BME280;4590;51.462;6.692;2023-01-29T01:01:19;102820.06;;;0.85;60.56
9110;BME280;4590;51.462;6.692;2023-01-29T01:04:05;102816.69;;;0.83;60.33
9110;BME280;4590;51.462;6.692;2023-01-29T01:06:31;102809.59;;;0.82;60.19
9110;BME280;4590;51.462;6.692;2023-01-29T01:08:56;102814.81;;;0.84;60.62
9110;BME280;4590;51.462;6.692;2023-01-29T01:11:40;102811.28;;;0.83;60.58
9110;BME280;4590;51.462;6.692;2023-01-29T01:14:06;102813.97;;;0.83;60.16
9110;BME280;4590;51.462;6.692;2023-01-29T01:16:31;102809.59;;;0.82;60.49
9110;BME280;4590;51.462;6.692;2023-01-29T01:18:56;102797.06;;;0.81;60.59
9110;BME280;4590;51.462;6.692;2023-01-29T01:21:21;102798.09;;;0.80;60.43
9110;BME280;4590;51.462;6.692;2023-01-29T01:23:47;102786.41;;;0.80;60.94
9110;BME280;4590;51.462;6.692;2023-01-29T01:26:12;102777.66;;;0.78;61.07
9110;BME280;4590;51.462;6.692;2023-01-29T01:28:37;102783.94;;;0.78;60.62
9110;BME280;4590;51.462;6.692;2023-01-29T01:31:07;102776.00;;;0.77;60.54
9110;BME280;4590;51.462;6.692;2023-01-29T01:33:33;102779.53;;;0.77;60.43
9110;BME280;4590;51.462;6.692;2023-01-29T01:36:00;102781.41;;;0.77;60.97
9110;BME280;4590;51.462;6.692;2023-01-29T01:38:26;102772.44;;;0.76;60.72
9110;BME280;4590;51.462;6.692;2023-01-29T01:40:51;102776.84;;;0.77;61.08
9110;BME280;4590;51.462;6.692;2023-01-29T01:43:16;102772.44;;;0.76;60.85
9110;BME280;4590;51.462;6.692;2023-01-29T01:45:42;102774.31;;;0.76;60.49
9110;BME280;4590;51.462;6.692;2023-01-29T01:51:06;102777.22;;;0.74;60.72
9110;BME280;4590;51.462;6.692;2023-01-29T01:53:39;102788.44;;;0.71;60.90
9110;BME280;4590;51.462;6.692;2023-01-29T01:56:09;102792.16;;;0.70;60.73
9110;BME280;4590;51.462;6.692;2023-01-29T01:58:41;102781.50;;;0.68;61.18
9110;BME280;4590;51.462;6.692;2023-01-29T02:01:08;102778.81;;;0.68;61.32
9110;BME280;4590;51.462;6.692;2023-01-29T02:03:39;102784.03;;;0.70;61.36
9110;BME280;4590;51.462;6.692;2023-01-29T02:06:24;102792.16;;;0.70;61.40
9110;BME280;4590;51.462;6.692;2023-01-29T02:09:12;102793.19;;;0.69;61.31
9110;BME280;4590;51.462;6.692;2023-01-29T02:11:57;102794.88;;;0.70;61.77
9110;BME280;4590;51.462;6.692;2023-01-29T02:14:23;102801.13;;;0.70;61.08
9110;BME280;4590;51.462;6.692;2023-01-29T02:16:49;102800.28;;;0.70;61.21
9110;BME280;4590;51.462;6.692;2023-01-29T02:19:25;102805.91;;;0.68;61.51
9110;BME280;4590;51.462;6.692;2023-01-29T02:27:45;102807.66;;;0.76;61.85
9110;BME280;4590;51.462;6.692;2023-01-29T02:30:45;102799.53;;;0.76;61.47
9110;BME280;4590;51.462;6.692;2023-01-29T02:33:30;102797.06;;;0.81;61.78
9110;BME280;4590;51.462;6.692;2023-01-29T02:36:14;102802.69;;;0.80;61.59
9110;BME280;4590;51.462;6.692;2023-01-29T02:38:49;102793.28;;;0.76;61.42
9110;BME280;4590;51.462;6.692;2023-01-29T02:41:38;102785.81;;;0.78;61.78
9110;BME280;4590;51.462;6.692;2023-01-29T02:44:18;102784.97;;;0.77;61.28
9110;BME280;4590;51.462;6.692;2023-01-29T02:49:47;102782.34;;;0.69;61.34
9110;BME280;4590;51.462;6.692;2023-01-29T02:52:20;102781.97;;;0.72;61.96
9110;BME280;4590;51.462;6.692;2023-01-29T02:54:54;102794.69;;;0.72;61.71
9110;BME280;4590;51.462;6.692;2023-01-29T02:57:23;102785.34;;;0.74;61.27
9110;BME280;4590;51.462;6.692;2023-01-29T03:02:43;102789.25;;;0.72;61.69
9110;BME280;4590;51.462;6.692;2023-01-29T03:05:15;102785.34;;;0.74;61.83
9110;BME280;4590;51.462;6.692;2023-01-29T03:07:48;102796.19;;;0.74;61.53
9110;BME280;4590;51.462;6.692;2023-01-29T03:10:22;102796.63;;;0.78;61.83
9110;BME280;4590;51.462;6.692;2023-01-29T03:12:53;102796.84;;;0.76;61.68
9110;BME280;4590;51.462;6.692;2023-01-29T03:15:28;102795.16;;;0.75;61.34
9110;BME280;4590;51.462;6.692;2023-01-29T03:18:06;102799.91;;;0.73;61.37
9110;BME280;4590;51.462;6.692;2023-01-29T03:20:39;102798.88;;;0.74;61.30
9110;BME280;4590;51.462;6.692;2023-01-29T03:23:16;102814.13;;;0.75;61.24
9110;BME280;4590;51.462;6.692;2023-01-29T03:25:50;102793.66;;;0.73;61.73
9110;BME280;4590;51.462;6.692;2023-01-29T03:28:35;102799.25;;;0.71;61.63
9110;BME280;4590;51.462;6.692;2023-01-29T03:31:18;102812.81;;;0.71;61.64
9110;BME280;4590;51.462;6.692;2023-01-29T03:34:16;102802.34;;;0.68;61.71
9110;BME280;4590;51.462;6.692;2023-01-29T03:36:53;102803.00;;;0.70;61.43
9110;BME280;4590;51.462;6.692;2023-01-29T03:39:20;102800.09;;;0.72;61.70
9110;BME280;4590;51.462;6.692;2023-01-29T03:41:55;102803.19;;;0.68;61.33
9110;BME280;4590;51.462;6.692;2023-01-29T03:44:36;102811.50;;;0.67;61.35
9110;BME280;4590;51.462;6.692;2023-01-29T03:47:19;102815.06;;;0.67;61.63
9110;BME280;4590;51.462;6.692;2023-01-29T03:52:18;102799.63;;;0.68;61.58
9110;BME280;4590;51.462;6.692;2023-01-29T03:57:27;102795.91;;;0.69;61.30
9110;BME280;4590;51.462;6.692;2023-01-29T04:00:03;102790.47;;;0.69;61.57
9110;BME280;4590;51.462;6.692;2023-01-29T04:02:41;102788.63;;;0.69;61.68
9110;BME280;4590;51.462;6.692;2023-01-29T04:05:19;102789.44;;;0.70;61.47
9110;BME280;4590;51.462;6.692;2023-01-29T04:07:46;102782.81;;;0.73;61.89
9110;BME280;4590;51.462;6.692;2023-01-29T04:10:20;102773.84;;;0.72;62.03
9110;BME280;4590;51.462;6.692;2023-01-29T04:13:01;102770.31;;;0.72;61.79
9110;BME280;4590;51.462;6.692;2023-01-29T04:15:30;102759.94;;;0.75;62.23
9110;BME280;4590;51.462;6.692;2023-01-29T04:17:57;102760.56;;;0.77;62.16
9110;BME280;4590;51.462;6.692;2023-01-29T04:20:23;102751.16;;;0.73;61.92
9110;BME280;4590;51.462;6.692;2023-01-29T04:22:50;102746.28;;;0.68;61.93
9110;BME280;4590;51.462;6.692;2023-01-29T04:25:19;102739.84;;;0.69;62.25
9110;BME280;4590;51.462;6.692;2023-01-29T04:30:45;102748.53;;;0.65;62.61
9110;BME280;4590;51.462;6.692;2023-01-29T04:33:30;102746.47;;;0.67;62.38
9110;BME280;4590;51.462;6.692;2023-01-29T04:38:49;102754.03;;;0.72;62.68
9110;BME280;4590;51.462;6.692;2023-01-29T04:44:04;102750.50;;;0.71;62.47
9110;BME280;4590;51.462;6.692;2023-01-29T04:46:39;102742.63;;;0.76;62.03
9110;BME280;4590;51.462;6.692;2023-01-29T04:52:11;102746.63;;;0.80;62.39
9110;BME280;4590;51.462;6.692;2023-01-29T04:57:35;102730.16;;;0.82;62.74
9110;BME280;4590;51.462;6.692;2023-01-29T05:00:09;102726.03;;;0.86;62.34
9110;BME280;4590;51.462;6.692;2023-01-29T05:02:39;102733.78;;;0.89;62.30
9110;BME280;4590;51.462;6.692;2023-01-29T05:05:06;102728.19;;;0.90;62.27
9110;BME280;4590;51.462;6.692;2023-01-29T05:07:34;102726.31;;;0.91;62.83
9110;BME280;4590;51.462;6.692;2023-01-29T05:10:06;102721.53;;;0.93;62.65
9110;BME280;4590;51.462;6.692;2023-01-29T05:12:32;102714.63;;;0.90;62.33
9110;BME280;4590;51.462;6.692;2023-01-29T05:15:01;102703.59;;;0.92;62.58
9110;BME280;4590;51.462;6.692;2023-01-29T05:17:27;102708.84;;;0.93;62.35
9110;BME280;4590;51.462;6.692;2023-01-29T05:19:54;102703.41;;;0.93;62.34
9110;BME280;4590;51.462;6.692;2023-01-29T05:22:20;102705.91;;;0.95;62.38
9110;BME280;4590;51.462;6.692;2023-01-29T05:24:48;102699.03;;;0.92;62.73
9110;BME280;4590;51.462;6.692;2023-01-29T05:27:22;102702.94;;;0.90;62.48
9110;BME280;4590;51.462;6.692;2023-01-29T05:30:07;102687.16;;;0.93;62.80
9110;BME280;4590;51.462;6.692;2023-01-29T05:32:32;102687.75;;;0.95;62.75
9110;BME280;4590;51.462;6.692;2023-01-29T05:34:58;102683.41;;;0.94;62.74
9110;BME280;4590;51.462;6.692;2023-01-29T05:37:23;102680.28;;;0.97;62.58
9110;BME280;4590;51.462;6.692;2023-01-29T05:39:48;102686.53;;;0.98;62.78
9110;BME280;4590;51.462;6.692;2023-01-29T05:42:13;102682.59;;;1.00;62.78
9110;BME280;4590;51.462;6.692;2023-01-29T05:44:39;102686.16;;;1.01;62.96
9110;BME280;4590;51.462;6.692;2023-01-29T05:47:04;102694.28;;;1.01;63.04
9110;BME280;4590;51.462;6.692;2023-01-29T05:49:30;102699.31;;;1.04;63.11
9110;BME280;4590;51.462;6.692;2023-01-29T05:51:55;102694.75;;;1.04;63.04
9110;BME280;4590;51.462;6.692;2023-01-29T05:54:20;102698.09;;;1.07;62.89
9110;BME280;4590;51.462;6.692;2023-01-29T05:56:45;102701.47;;;1.09;62.73
9110;BME280;4590;51.462;6.692;2023-01-29T05:59:11;102707.50;;;1.11;62.98
9110;BME280;4590;51.462;6.692;2023-01-29T06:01:37;102702.72;;;1.13;62.82
9110;BME280;4590;51.462;6.692;2023-01-29T06:04:02;102711.50;;;1.15;63.09
9110;BME280;4590;51.462;6.692;2023-01-29T06:06:28;102718.59;;;1.16;63.12
9110;BME280;4590;51.462;6.692;2023-01-29T06:08:54;102722.81;;;1.18;62.88
9110;BME280;4590;51.462;6.692;2023-01-29T06:11:19;102733.44;;;1.20;62.92
9110;BME280;4590;51.462;6.692;2023-01-29T06:13:45;102735.13;;;1.21;62.72
9110;BME280;4590;51.462;6.692;2023-01-29T06:16:12;102734.09;;;1.22;62.77
9110;BME280;4590;51.462;6.692;2023-01-29T06:18:38;102744.94;;;1.22;62.93
9110;BME280;4590;51.462;6.692;2023-01-29T06:21:05;102742.88;;;1.24;62.91
9110;BME280;4590;51.462;6.692;2023-01-29T06:23:31;102741.63;;;1.26;62.67
9110;BME280;4590;51.462;6.692;2023-01-29T06:26:05;102739.13;;;1.25;62.94
9110;BME280;4590;51.462;6.692;2023-01-29T06:28:30;102743.31;;;1.27;63.04
9110;BME280;4590;51.462;6.692;2023-01-29T06:30:57;102737.31;;;1.11;63.46
9110;BME280;4590;51.462;6.692;2023-01-29T06:33:23;102735.41;;;1.04;64.28
9110;BME280;4590;51.462;6.692;2023-01-29T06:35:49;102726.09;;;1.14;63.40
9110;BME280;4590;51.462;6.692;2023-01-29T06:38:14;102724.25;;;0.93;64.68
9110;BME280;4590;51.462;6.692;2023-01-29T06:40:39;102715.50;;;0.97;64.03
9110;BME280;4590;51.462;6.692;2023-01-29T06:43:04;102703.78;;;0.90;64.39
9110;BME280;4590;51.462;6.692;2023-01-29T06:45:30;102699.31;;;1.04;63.87
9110;BME280;4590;51.462;6.692;2023-01-29T06:47:55;102693.84;;;0.97;63.84
9110;BME280;4590;51.462;6.692;2023-01-29T06:50:20;102703.41;;;0.93;64.50
9110;BME280;4590;51.462;6.692;2023-01-29T06:52:45;102706.81;;;0.81;64.97
9110;BME280;4590;51.462;6.692;2023-01-29T06:55:11;102706.81;;;0.81;65.01
9110;BME280;4590;51.462;6.692;2023-01-29T06:57:36;102708.09;;;0.85;65.17
9110;BME280;4590;51.462;6.692;2023-01-29T07:00:02;102706.72;;;0.95;64.43
9110;BME280;4590;51.462;6.692;2023-01-29T07:02:28;102696.81;;;1.02;64.10
9110;BME280;4590;51.462;6.692;2023-01-29T07:04:53;102695.38;;;1.07;64.03
9110;BME280;4590;51.462;6.692;2023-01-29T07:07:18;102693.94;;;1.11;63.45
9110;BME280;4590;51.462;6.692;2023-01-29T07:09:44;102701.31;;;1.17;63.40
9110;BME280;4590;51.462;6.692;2023-01-29T07:12:09;102708.22;;;1.19;63.70
9110;BME280;4590;51.462;6.692;2023-01-29T07:14:35;102716.59;;;1.24;63.94
9110;BME280;4590;51.462;6.692;2023-01-29T07:17:00;102713.97;;;1.10;64.68
9110;BME280;4590;51.462;6.692;2023-01-29T07:19:26;102728.69;;;1.22;63.81
9110;BME280;4590;51.462;6.692;2023-01-29T07:21:51;102729.97;;;1.26;64.20
9110;BME280;4590;51.462;6.692;2023-01-29T07:24:16;102716.59;;;1.24;63.84
9110;BME280;4590;51.462;6.692;2023-01-29T07:26:42;102716.00;;;1.29;63.36
9110;BME280;4590;51.462;6.692;2023-01-29T07:29:08;102710.72;;;1.21;63.66
9110;BME280;4590;51.462;6.692;2023-01-29T07:31:33;102706.91;;;1.15;64.63
9110;BME280;4590;51.462;6.692;2023-01-29T07:33:58;102715.06;;;1.15;64.06
9110;BME280;4590;51.462;6.692;2023-01-29T07:36:23;102729.72;;;1.21;64.04
9110;BME280;4590;51.462;6.692;2023-01-29T07:38:49;102720.28;;;1.17;64.08
9110;BME280;4590;51.462;6.692;2023-01-29T07:41:15;102731.47;;;0.86;65.79
9110;BME280;4590;51.462;6.692;2023-01-29T07:43:40;102726.97;;;0.93;65.14
9110;BME280;4590;51.462;6.692;2023-01-29T07:46:06;102711.00;;;1.04;64.44
9110;BME280;4590;51.462;6.692;2023-01-29T07:48:32;102715.78;;;1.02;65.15
9110;BME280;4590;51.462;6.692;2023-01-29T07:50:57;102717.56;;;0.95;64.91
9110;BME280;4590;51.462;6.692;2023-01-29T07:53:23;102698.28;;;1.05;64.40
9110;BME280;4590;51.462;6.692;2023-01-29T07:55:49;102704.47;;;0.99;65.06
9110;BME280;4590;51.462;6.692;2023-01-29T07:58:14;102722.94;;;0.89;65.38
9110;BME280;4590;51.462;6.692;2023-01-29T08:00:39;102718.41;;;0.96;64.96
9110;BME280;4590;51.462;6.692;2023-01-29T08:03:14;102701.31;;;0.95;65.25
9110;BME280;4590;51.462;6.692;2023-01-29T08:05:44;102705.13;;;1.01;64.77
9110;BME280;4590;51.462;6.692;2023-01-29T08:08:10;102702.22;;;1.02;65.00
9110;BME280;4590;51.462;6.692;2023-01-29T08:10:37;102709.72;;;1.00;65.19
9110;BME280;4590;51.462;6.692;2023-01-29T08:13:04;102716.25;;;1.06;64.74
9110;BME280;4590;51.462;6.692;2023-01-29T08:15:30;102714.22;;;1.15;64.46
9110;BME280;4590;51.462;6.692;2023-01-29T08:17:55;102709.63;;;1.15;64.15
9110;BME280;4590;51.462;6.692;2023-01-29T08:20:21;102716.91;;;1.15;64.72
9110;BME280;4590;51.462;6.692;2023-01-29T08:22:47;102708.84;;;1.21;64.01
9110;BME280;4590;51.462;6.692;2023-01-29T08:25:13;102701.50;;;1.15;64.49
9110;BME280;4590;51.462;6.692;2023-01-29T08:27:39;102683.94;;;1.11;64.56
9110;BME280;4590;51.462;6.692;2023-01-29T08:30:05;102685.13;;;1.02;65.53
9110;BME280;4590;51.462;6.692;2023-01-29T08:32:31;102681.03;;;1.13;64.83
9110;BME280;4590;51.462;6.692;2023-01-29T08:34:56;102669.69;;;1.02;65.46
9110;BME280;4590;51.462;6.692;2023-01-29T08:37:22;102680.25;;;1.19;64.57
9110;BME280;4590;51.462;6.692;2023-01-29T08:39:47;102679.88;;;1.22;64.42
9110;BME280;4590;51.462;6.692;2023-01-29T08:42:12;102685.09;;;1.23;64.71
9110;BME280;4590;51.462;6.692;2023-01-29T08:44:37;102693.25;;;1.30;64.58
9110;BME280;4590;51.462;6.692;2023-01-29T08:47:03;102692.59;;;1.21;64.82
9110;BME280;4590;51.462;6.692;2023-01-29T08:49:28;102676.25;;;1.15;65.47
9110;BME280;4590;51.462;6.692;2023-01-29T08:51:53;102668.63;;;1.25;64.89
9110;BME280;4590;51.462;6.692;2023-01-29T08:54:21;102670.69;;;1.23;65.03
9110;BME280;4590;51.462;6.692;2023-01-29T08:56:46;102668.66;;;1.31;64.76
9110;BME280;4590;51.462;6.692;2023-01-29T08:59:11;102666.84;;;1.38;64.34
9110;BME280;4590;51.462;6.692;2023-01-29T09:01:37;102661.63;;;1.44;64.01
9110;BME280;4590;51.462;6.692;2023-01-29T09:04:02;102658.94;;;1.44;64.03
9110;BME280;4590;51.462;6.692;2023-01-29T09:06:27;102681.56;;;1.29;65.26
9110;BME280;4590;51.462;6.692;2023-01-29T09:08:53;102666.13;;;1.23;64.69
9110;BME280;4590;51.462;6.692;2023-01-29T09:11:22;102664.31;;;1.37;64.77
9110;BME280;4590;51.462;6.692;2023-01-29T09:13:48;102659.88;;;1.29;64.73
9110;BME280;4590;51.462;6.692;2023-01-29T09:16:13;102652.00;;;1.34;64.78
9110;BME280;4590;51.462;6.692;2023-01-29T09:18:38;102658.41;;;1.27;65.10
9110;BME280;4590;51.462;6.692;2023-01-29T09:21:04;102657.25;;;1.42;64.23
9110;BME280;4590;51.462;6.692;2023-01-29T09:23:30;102659.19;;;1.49;64.31
9110;BME280;4590;51.462;6.692;2023-01-29T09:25:55;102646.63;;;1.41;64.86
9110;BME280;4590;51.462;6.692;2023-01-29T09:28:21;102649.13;;;1.15;66.40
9110;BME280;4590;51.462;6.692;2023-01-29T09:30:46;102638.81;;;1.31;64.96
9110;BME280;4590;51.462;6.692;2023-01-29T09:33:12;102637.41;;;1.35;65.32
9110;BME280;4590;51.462;6.692;2023-01-29T09:35:40;102633.22;;;1.33;65.00
9110;BME280;4590;51.462;6.692;2023-01-29T09:38:05;102641.19;;;1.41;64.58
9110;BME280;4590;51.462;6.692;2023-01-29T09:40:42;102630.97;;;1.43;64.46
9110;BME280;4590;51.462;6.692;2023-01-29T09:43:17;102628.69;;;1.47;64.77
9110;BME280;4590;51.462;6.692;2023-01-29T09:45:52;102634.56;;;1.50;64.73
9110;BME280;4590;51.462;6.692;2023-01-29T09:48:20;102628.97;;;1.58;64.27
9110;BME280;4590;51.462;6.692;2023-01-29T09:50:50;102618.25;;;1.44;65.53
9110;BME280;4590;51.462;6.692;2023-01-29T09:53:24;102624.59;;;1.57;64.55
9110;BME280;4590;51.462;6.692;2023-01-29T09:56:11;102634.09;;;1.40;65.83
9110;BME280;4590;51.462;6.692;2023-01-29T09:58:39;102636.06;;;1.59;64.91
9110;BME280;4590;51.462;6.692;2023-01-29T10:01:11;102637.69;;;1.47;64.71
9110;BME280;4590;51.462;6.692;2023-01-29T10:07:00;102644.34;;;1.45;65.59
9110;BME280;4590;51.462;6.692;2023-01-29T10:09:32;102643.53;;;1.51;65.13
9110;BME280;4590;51.462;6.692;2023-01-29T10:12:23;102641.34;;;1.67;64.42
9110;BME280;4590;51.462;6.692;2023-01-29T10:15:17;102640.31;;;1.68;64.90
9110;BME280;4590;51.462;6.692;2023-01-29T10:18:09;102633.78;;;1.56;64.95
9110;BME280;4590;51.462;6.692;2023-01-29T10:23:35;102624.69;;;1.77;64.43
9110;BME280;4590;51.462;6.692;2023-01-29T10:26:02;102627.94;;;1.59;65.57
9110;BME280;4590;51.462;6.692;2023-01-29T10:28:38;102630.41;;;1.54;65.74
9110;BME280;4590;51.462;6.692;2023-01-29T10:31:10;102624.66;;;1.70;64.75
9110;BME280;4590;51.462;6.692;2023-01-29T10:33:48;102618.78;;;1.67;65.24
9110;BME280;4590;51.462;6.692;2023-01-29T10:36:18;102618.19;;;1.71;65.18
9110;BME280;4590;51.462;6.692;2023-01-29T10:38:46;102615.53;;;1.85;64.56
9110;BME280;4590;51.462;6.692;2023-01-29T10:41:21;102619.72;;;1.94;64.68
9110;BME280;4590;51.462;6.692;2023-01-29T10:47:06;102610.34;;;1.96;64.42
9110;BME280;4590;51.462;6.692;2023-01-29T10:52:38;102604.09;;;1.96;64.34
9110;BME280;4590;51.462;6.692;2023-01-29T10:55:50;102602.25;;;2.03;64.21
9110;BME280;4590;51.462;6.692;2023-01-29T10:58:40;102586.78;;;2.03;64.19
9110;BME280;4590;51.462;6.692;2023-01-29T11:01:11;102588.69;;;2.16;64.14
9110;BME280;4590;51.462;6.692;2023-01-29T11:03:36;102582.84;;;2.19;64.36
9110;BME280;4590;51.462;6.692;2023-01-29T11:06:18;102578.63;;;2.10;64.77
9110;BME280;4590;51.462;6.692;2023-01-29T11:11:49;102570.53;;;2.17;64.13
9110;BME280;4590;51.462;6.692;2023-01-29T11:14:24;102564.69;;;2.26;63.80
9110;BME280;4590;51.462;6.692;2023-01-29T11:16:51;102560.91;;;2.21;64.23
9110;BME280;4590;51.462;6.692;2023-01-29T11:19:16;102563.03;;;2.32;63.69
9110;BME280;4590;51.462;6.692;2023-01-29T11:21:59;102564.69;;;2.33;64.20
9110;BME280;4590;51.462;6.692;2023-01-29T11:24:26;102554.25;;;2.43;64.29
9110;BME280;4590;51.462;6.692;2023-01-29T11:26:54;102547.16;;;2.35;64.33
9110;BME280;4590;51.462;6.692;2023-01-29T11:29:42;102545.25;;;2.42;64.02
9110;BME280;4590;51.462;6.692;2023-01-29T11:32:14;102548.38;;;2.53;63.78
9110;BME280;4590;51.462;6.692;2023-01-29T11:37:34;102534.41;;;2.42;63.90
9110;BME280;4590;51.462;6.692;2023-01-29T11:40:01;102526.47;;;2.47;64.65
9110;BME280;4590;51.462;6.692;2023-01-29T11:42:30;102523.94;;;2.53;64.66
9110;BME280;4590;51.462;6.692;2023-01-29T11:44:55;102510.38;;;2.66;64.07
9110;BME280;4590;51.462;6.692;2023-01-29T11:47:24;102517.66;;;2.72;63.37
9110;BME280;4590;51.462;6.692;2023-01-29T11:49:55;102508.03;;;2.76;64.06
9110;BME280;4590;51.462;6.692;2023-01-29T11:52:33;102495.69;;;2.80;63.60
9110;BME280;4590;51.462;6.692;2023-01-29T11:55:15;102495.03;;;2.85;63.72
9110;BME280;4590;51.462;6.692;2023-01-29T11:57:42;102494.19;;;2.91;63.59
9110;BME280;4590;51.462;6.692;2023-01-29T12:00:25;102493.38;;;2.83;63.44
9110;BME280;4590;51.462;6.692;2023-01-29T12:03:05;102496.28;;;2.95;63.32
9110;BME280;4590;51.462;6.692;2023-01-29T12:05:34;102484.38;;;2.96;63.41
9110;BME280;4590;51.462;6.692;2023-01-29T12:08:00;102475.56;;;3.01;63.22
9110;BME280;4590;51.462;6.692;2023-01-29T12:15:40;102462.22;;;2.93;63.67
9110;BME280;4590;51.462;6.692;2023-01-29T12:20:57;102430.63;;;2.98;64.08
9110;BME280;4590;51.462;6.692;2023-01-29T12:23:47;102421.56;;;3.04;63.17
9110;BME280;4590;51.462;6.692;2023-01-29T12:26:39;102409.03;;;3.03;63.62
9110;BME280;4590;51.462;6.692;2023-01-29T12:29:36;102413.84;;;3.01;63.83
9110;BME280;4590;51.462;6.692;2023-01-29T12:34:51;102395.56;;;3.15;63.90
9110;BME280;4590;51.462;6.692;2023-01-29T12:39:50;102396.38;;;3.22;63.38
9110;BME280;4590;51.462;6.692;2023-01-29T12:42:21;102389.06;;;3.23;63.51
9110;BME280;4590;51.462;6.692;2023-01-29T12:45:06;102392.59;;;3.30;63.24
9110;BME280;4590;51.462;6.692;2023-01-29T12:47:37;102385.00;;;3.38;62.84
9110;BME280;4590;51.462;6.692;2023-01-29T12:50:23;102370.16;;;3.34;62.67
9110;BME280;4590;51.462;6.692;2023-01-29T12:53:05;102366.06;;;3.50;62.71
9110;BME280;4590;51.462;6.692;2023-01-29T12:55:46;102357.97;;;3.43;62.58
9110;BME280;4590;51.462;6.692;2023-01-29T13:00:56;102349.28;;;3.60;62.57
9110;BME280;4590;51.462;6.692;2023-01-29T13:03:31;102337.72;;;3.64;62.66
9110;BME280;4590;51.462;6.692;2023-01-29T13:06:05;102357.81;;;3.63;62.21
9110;BME280;4590;51.462;6.692;2023-01-29T13:11:07;102354.22;;;3.69;62.44
9110;BME280;4590;51.462;6.692;2023-01-29T13:13:42;102346.66;;;3.71;62.48
9110;BME280;4590;51.462;6.692;2023-01-29T13:16:11;102339.78;;;3.69;62.36
9110;BME280;4590;51.462;6.692;2023-01-29T13:18:45;102336.63;;;3.72;62.23
9110;BME280;4590;51.462;6.692;2023-01-29T13:21:15;102336.41;;;3.73;62.16
9110;BME280;4590;51.462;6.692;2023-01-29T13:23:45;102335.38;;;3.68;62.59
9110;BME280;4590;51.462;6.692;2023-01-29T13:26:11;102333.81;;;3.78;62.31
9110;BME280;4590;51.462;6.692;2023-01-29T13:28:38;102342.38;;;3.82;62.43
9110;BME280;4590;51.462;6.692;2023-01-29T13:31:25;102330.72;;;3.75;61.66
9110;BME280;4590;51.462;6.692;2023-01-29T13:36:36;102336.50;;;3.85;62.05
9110;BME280;4590;51.462;6.692;2023-01-29T13:39:07;102338.38;;;3.84;61.89
9110;BME280;4590;51.462;6.692;2023-01-29T13:41:41;102340.09;;;3.79;62.66
9110;BME280;4590;51.462;6.692;2023-01-29T13:44:27;102341.22;;;3.71;62.25
9110;BME280;4590;51.462;6.692;2023-01-29T13:46:59;102331.88;;;3.85;62.02
9110;BME280;4590;51.462;6.692;2023-01-29T13:49:53;102328.66;;;3.70;62.02
9110;BME280;4590;51.462;6.692;2023-01-29T13:52:37;102326.88;;;3.82;62.05
9110;BME280;4590;51.462;6.692;2023-01-29T14:08:39;102321.53;;;3.94;61.90
9110;BME280;4590;51.462;6.692;2023-01-29T14:10:44;102312.91;;;3.97;62.07
9110;BME280;4590;51.462;6.692;2023-01-29T14:18:24;102299.91;;;3.99;61.92
9110;BME280;4590;51.462;6.692;2023-01-29T14:20:53;102296.97;;;4.01;61.53
9110;BME280;4590;51.462;6.692;2023-01-29T14:23:48;102304.13;;;3.95;61.87
9110;BME280;4590;51.462;6.692;2023-01-29T14:26:32;102293.84;;;3.97;61.77
9110;BME280;4590;51.462;6.692;2023-01-29T14:31:57;102291.06;;;4.04;61.76
9110;BME280;4590;51.462;6.692;2023-01-29T14:34:41;102286.28;;;3.99;61.64
9110;BME280;4590;51.462;6.692;2023-01-29T14:39:46;102286.47;;;4.04;61.33
9110;BME280;4590;51.462;6.692;2023-01-29T14:42:27;102284.56;;;4.05;61.54
9110;BME280;4590;51.462;6.692;2023-01-29T14:52:53;102283.88;;;4.09;61.45
9110;BME280;4590;51.462;6.692;2023-01-29T14:55:29;102277.63;;;4.09;60.94
9110;BME280;4590;51.462;6.692;2023-01-29T14:57:56;102276.31;;;4.11;61.01
9110;BME280;4590;51.462;6.692;2023-01-29T15:00:52;102284.19;;;4.01;60.34
9110;BME280;4590;51.462;6.692;2023-01-29T15:03:26;102275.97;;;4.08;61.22
9110;BME280;4590;51.462;6.692;2023-01-29T15:05:53;102267.78;;;4.08;60.84
9110;BME280;4590;51.462;6.692;2023-01-29T15:08:26;102267.78;;;4.08;60.76
9110;BME280;4590;51.462;6.692;2023-01-29T15:10:56;102266.47;;;4.10;60.98
9110;BME280;4590;51.462;6.692;2023-01-29T15:16:16;102270.88;;;4.11;61.00
9110;BME280;4590;51.462;6.692;2023-01-29T15:18:44;102263.09;;;4.15;61.15
9110;BME280;4590;51.462;6.692;2023-01-29T15:21:11;102262.34;;;4.08;60.65
9110;BME280;4590;51.462;6.692;2023-01-29T15:23:36;102262.47;;;4.13;61.15
9110;BME280;4590;51.462;6.692;2023-01-29T15:26:04;102255.97;;;4.14;60.83
9110;BME280;4590;51.462;6.692;2023-01-29T15:28:33;102263.69;;;4.17;60.67
9110;BME280;4590;51.462;6.692;2023-01-29T15:31:00;102244.84;;;4.15;61.05